Time;durP1;ratioP1;P1;durP2;ratioP2;P2;SDS_P1;SDS_P2;PMS_P1;PMS_P2;Temp;Humidity;BMP_temperature;BMP_pressure;BME280_temperature;BME280_humidity;BME280_pressure;Samples;Min_cycle;Max_cycle;Signal;HPM_P1;HPM_P2
2022/04/14 00:00:33;;;;;;;14.63;13.13;;;17.30;97.70;;;;;;4994303;28;20483;-85
2022/04/14 00:03:05;;;;;;;17.90;13.27;;;17.30;97.80;;;;;;4995973;28;20463;-86
2022/04/14 00:05:38;;;;;;;13.67;12.37;;;17.20;97.80;;;;;;4989614;28;20461;-86
2022/04/14 00:08:11;;;;;;;17.60;14.23;;;17.20;98.00;;;;;;4999052;23;20482;-86
2022/04/14 00:10:56;;;;;;;14.07;12.60;;;17.10;98.20;;;;;;5014577;28;21135;-86
2022/04/14 00:13:54;;;;;;;14.80;13.30;;;17.20;98.30;;;;;;5021595;28;20458;-88
2022/04/14 00:16:22;;;;;;;15.53;12.70;;;17.30;98.00;;;;;;5009360;28;20463;-87
2022/04/14 00:18:51;;;;;;;15.60;14.00;;;17.40;97.90;;;;;;5023806;28;20494;-85
2022/04/14 00:21:27;;;;;;;16.47;14.57;;;17.40;97.40;;;;;;4984370;28;20473;-86
2022/04/14 00:24:03;;;;;;;14.63;12.93;;;17.20;97.60;;;;;;4990344;28;20574;-89
2022/04/14 00:26:33;;;;;;;17.57;14.53;;;17.30;97.80;;;;;;5001844;28;20443;-88
2022/04/14 00:29:32;;;;;;;15.43;13.93;;;17.40;97.50;;;;;;5001532;28;20485;-86
2022/04/14 00:32:02;;;;;;;16.40;13.50;;;17.40;97.40;;;;;;5000770;28;20435;-88
2022/04/14 00:34:56;;;;;;;18.63;13.87;;;17.20;97.60;;;;;;5001608;28;20470;-88
2022/04/14 00:37:27;;;;;;;15.03;13.37;;;17.00;98.10;;;;;;4987885;28;20446;-85
2022/04/14 00:39:54;;;;;;;16.03;13.07;;;16.90;98.50;;;;;;4982744;28;20487;-84
2022/04/14 00:42:23;;;;;;;15.57;12.63;;;16.90;98.70;;;;;;4983074;28;20457;-85
2022/04/14 00:45:00;;;;;;;16.80;13.70;;;16.90;98.80;;;;;;4988144;28;20497;-84
2022/04/14 00:47:35;;;;;;;13.73;12.27;;;16.90;99.10;;;;;;4988419;28;20466;-85
2022/04/14 00:50:13;;;;;;;20.00;14.00;;;16.90;98.90;;;;;;4987041;28;20839;-86
2022/04/14 00:52:54;;;;;;;18.07;13.83;;;16.80;99.10;;;;;;4989006;28;20459;-85
2022/04/14 00:55:31;;;;;;;17.63;14.70;;;16.80;99.40;;;;;;4984625;28;20558;-87
2022/04/14 00:58:04;;;;;;;17.03;15.20;;;16.70;99.40;;;;;;4986762;28;20501;-87
2022/04/14 01:00:35;;;;;;;16.03;14.13;;;16.80;99.40;;;;;;4986961;28;20475;-88
2022/04/14 01:03:05;;;;;;;17.03;13.90;;;16.80;99.40;;;;;;4983154;28;20464;-84
2022/04/14 01:05:33;;;;;;;18.80;13.57;;;16.80;99.30;;;;;;4983439;28;20501;-87
2022/04/14 01:08:10;;;;;;;15.93;12.80;;;16.80;99.30;;;;;;4985142;28;20462;-83
2022/04/14 01:10:38;;;;;;;17.27;13.43;;;16.70;99.10;;;;;;4983356;28;20514;-84
2022/04/14 01:13:05;;;;;;;17.03;14.13;;;16.70;99.20;;;;;;4984271;28;20551;-85
2022/04/14 01:15:56;;;;;;;16.53;14.03;;;16.70;99.40;;;;;;4984921;28;20474;-83
2022/04/14 01:18:27;;;;;;;18.10;14.07;;;16.70;99.40;;;;;;5012327;23;20489;-85
2022/04/14 01:20:55;;;;;;;16.63;14.43;;;16.70;99.30;;;;;;5006155;28;20439;-86
2022/04/14 01:23:42;;;;;;;15.67;13.77;;;16.70;99.30;;;;;;5005749;28;20458;-88
2022/04/14 01:26:10;;;;;;;15.10;13.43;;;16.70;99.20;;;;;;5007087;28;21728;-87
2022/04/14 01:28:37;;;;;;;15.43;13.13;;;16.70;99.10;;;;;;5002693;28;20463;-83
2022/04/14 01:31:04;;;;;;;14.83;13.33;;;16.70;99.40;;;;;;4990731;28;20462;-83
2022/04/14 01:33:31;;;;;;;13.60;12.13;;;16.60;99.00;;;;;;4997172;28;20474;-82
2022/04/14 01:35:59;;;;;;;13.80;11.57;;;16.60;99.00;;;;;;4994622;28;20472;-85
2022/04/14 01:38:26;;;;;;;14.60;13.07;;;16.60;99.10;;;;;;4993070;28;20478;-84
2022/04/14 01:40:55;;;;;;;14.10;12.60;;;16.60;99.10;;;;;;5007810;28;20439;-89
2022/04/14 01:43:37;;;;;;;13.97;12.50;;;16.60;99.00;;;;;;5018196;28;20485;-86
2022/04/14 01:46:13;;;;;;;14.47;12.57;;;16.50;99.00;;;;;;5000985;28;20489;-87
2022/04/14 01:48:47;;;;;;;15.50;11.80;;;16.30;99.30;;;;;;5017503;28;20463;-89
2022/04/14 01:51:15;;;;;;;15.60;13.30;;;16.30;99.50;;;;;;5020569;28;20449;-89
2022/04/14 01:53:48;;;;;;;15.40;12.40;;;16.40;99.70;;;;;;5015128;28;20486;-85
2022/04/14 01:56:28;;;;;;;16.60;12.77;;;16.40;99.80;;;;;;5005500;28;20834;-85
2022/04/14 01:59:01;;;;;;;16.33;12.73;;;16.30;99.80;;;;;;5002610;28;20467;-85
2022/04/14 02:02:05;;;;;;;15.27;13.77;;;16.30;99.90;;;;;;4997063;28;20457;-86
2022/04/14 02:04:37;;;;;;;14.90;12.87;;;16.30;99.90;;;;;;4992178;28;20487;-86
2022/04/14 02:07:10;;;;;;;14.43;11.90;;;16.30;99.90;;;;;;4997285;28;20450;-88
2022/04/14 02:09:57;;;;;;;16.70;14.20;;;16.20;99.90;;;;;;4992619;28;20517;-87
2022/04/14 02:12:25;;;;;;;18.10;14.00;;;16.20;99.90;;;;;;5003839;28;20462;-85
2022/04/14 02:14:53;;;;;;;16.50;14.07;;;16.30;99.90;;;;;;5015102;28;20443;-89
2022/04/14 02:17:20;;;;;;;15.90;14.20;;;16.20;99.90;;;;;;5019790;28;20465;-85
2022/04/14 02:19:48;;;;;;;19.23;15.50;;;16.20;99.90;;;;;;5006530;28;20525;-85
2022/04/14 02:22:26;;;;;;;18.10;15.10;;;16.20;99.90;;;;;;4997828;28;20773;-85
2022/04/14 02:25:13;;;;;;;20.40;15.50;;;16.10;99.90;;;;;;4995925;28;20482;-88
2022/04/14 02:27:54;;;;;;;17.13;15.30;;;16.10;99.90;;;;;;4982649;28;20439;-86
2022/04/14 02:30:23;;;;;;;17.77;15.97;;;16.10;99.90;;;;;;4993980;28;20486;-85
2022/04/14 02:33:18;;;;;;;19.40;15.90;;;16.10;99.90;;;;;;4999580;28;20489;-86
2022/04/14 02:35:46;;;;;;;18.13;16.17;;;16.10;99.90;;;;;;5001035;28;20459;-88
2022/04/14 02:38:14;;;;;;;19.17;17.10;;;16.00;99.90;;;;;;4994122;28;20561;-85
2022/04/14 02:40:41;;;;;;;21.90;17.83;;;16.00;99.90;;;;;;4994524;28;20529;-85
2022/04/14 02:43:26;;;;;;;22.80;17.30;;;16.00;99.90;;;;;;5001339;28;20454;-84
2022/04/14 02:46:07;;;;;;;23.80;18.60;;;16.00;99.90;;;;;;4998871;28;20494;-87
2022/04/14 02:48:41;;;;;;;21.57;17.30;;;15.90;99.90;;;;;;5005047;28;20535;-85
2022/04/14 02:51:09;;;;;;;20.03;17.73;;;15.90;99.90;;;;;;5004698;28;20926;-87
2022/04/14 02:53:36;;;;;;;21.33;18.93;;;15.90;99.90;;;;;;5015608;28;20458;-88
2022/04/14 02:56:06;;;;;;;19.97;17.50;;;16.00;99.90;;;;;;5015561;28;20568;-88
2022/04/14 02:58:37;;;;;;;20.67;18.37;;;15.90;99.90;;;;;;5018777;28;20494;-86
2022/04/14 03:01:10;;;;;;;21.30;18.30;;;16.00;99.90;;;;;;5014680;28;20459;-85
2022/04/14 03:03:43;;;;;;;25.20;20.20;;;16.00;99.90;;;;;;5016311;28;20473;-86
2022/04/14 03:06:13;;;;;;;23.33;20.03;;;16.30;99.90;;;;;;5007312;28;20531;-88
2022/04/14 03:08:41;;;;;;;24.50;19.47;;;16.20;99.90;;;;;;5004019;28;20487;-86
2022/04/14 03:11:13;;;;;;;22.67;20.23;;;16.30;99.90;;;;;;4991602;28;20490;-83
2022/04/14 03:13:42;;;;;;;26.50;19.97;;;16.20;99.90;;;;;;4987473;28;20458;-83
2022/04/14 03:16:13;;;;;;;27.13;20.80;;;16.10;99.90;;;;;;4992822;28;20555;-84
2022/04/14 03:19:42;;;;;;;31.03;19.63;;;16.20;99.90;;;;;;4972840;28;20491;-85
2022/04/14 03:22:23;;;;;;;23.73;20.27;;;16.20;99.90;;;;;;4901797;29;20569;-85
2022/04/14 03:24:54;;;;;;;25.53;22.70;;;16.10;99.90;;;;;;4920760;29;20490;-83
2022/04/14 03:27:44;;;;;;;28.50;21.33;;;16.10;99.90;;;;;;4890787;29;20558;-84
2022/04/14 03:30:36;;;;;;;24.90;21.93;;;16.10;99.90;;;;;;4896918;29;20446;-84
2022/04/14 03:33:12;;;;;;;29.77;21.40;;;16.10;99.90;;;;;;4912751;29;20806;-84
2022/04/14 03:35:41;;;;;;;24.73;19.80;;;16.00;99.90;;;;;;4897602;29;21057;-86
2022/04/14 03:38:25;;;;;;;28.43;21.70;;;15.90;99.90;;;;;;4897008;29;20578;-85
2022/04/14 03:41:07;;;;;;;23.17;20.37;;;15.90;99.90;;;;;;4918351;29;20478;-84
2022/04/14 03:44:04;;;;;;;;;;;;;;;;;;;;;
2022/04/14 03:46:47;;;;;;;28.13;22.93;;;15.90;99.90;;;;;;4949357;28;20455;-84
2022/04/14 03:49:19;;;;;;;24.97;22.30;;;15.80;99.90;;;;;;4992182;28;20506;-83
2022/04/14 03:52:02;;;;;;;28.17;21.90;;;15.80;99.90;;;;;;4994632;28;20906;-88
2022/04/14 03:54:58;;;;;;;26.10;22.10;;;15.80;99.90;;;;;;4988650;28;21313;-82
2022/04/14 03:57:44;;;;;;;30.60;22.20;;;15.90;99.90;;;;;;4977455;28;20447;-82
2022/04/14 04:00:26;;;;;;;26.10;21.70;;;15.80;99.90;;;;;;4994490;28;20557;-84
2022/04/14 04:03:02;;;;;;;25.43;21.70;;;15.80;99.90;;;;;;4990760;28;20473;-82
2022/04/14 04:06:30;;;;;;;24.77;21.47;;;15.80;99.90;;;;;;4989988;28;21113;-87
2022/04/14 04:08:57;;;;;;;33.07;23.00;;;15.80;99.90;;;;;;4988052;28;20482;-83
2022/04/14 04:11:44;;;;;;;27.60;23.10;;;15.90;99.90;;;;;;4987830;28;20700;-85
2022/04/14 04:14:14;;;;;;;28.93;22.60;;;15.80;99.90;;;;;;4990157;28;20450;-88
2022/04/14 04:17:12;;;;;;;27.93;23.33;;;15.80;99.90;;;;;;4990136;28;20462;-83
2022/04/14 04:19:55;;;;;;;27.43;23.07;;;15.70;99.90;;;;;;5141926;23;21083;-86
2022/04/14 04:22:26;;;;;;;27.50;23.30;;;15.70;99.90;;;;;;4987026;28;20958;-84
2022/04/14 04:25:03;;;;;;;28.77;24.33;;;15.60;99.90;;;;;;4988418;28;20518;-85
2022/04/14 04:27:48;;;;;;;32.07;24.63;;;15.60;99.90;;;;;;4990841;28;20559;-84
2022/04/14 04:30:48;;;;;;;;;;;;;;;;;;;;;
2022/04/14 04:33:34;;;;;;;36.77;27.40;;;15.80;99.90;;;;;;4972259;28;20584;-84
2022/04/14 04:39:35;;;;;;;32.77;25.17;;;16.10;99.90;;;;;;4968032;28;20491;-84
2022/04/14 04:42:05;;;;;;;30.43;25.67;;;16.00;99.90;;;;;;4966652;28;20458;-87
2022/04/14 04:45:00;;;;;;;32.77;26.63;;;15.90;99.90;;;;;;4968850;28;21560;-85
2022/04/14 04:47:39;;;;;;;37.93;26.70;;;15.80;99.90;;;;;;4968700;28;20598;-88
2022/04/14 04:50:14;;;;;;;31.93;26.17;;;15.60;99.90;;;;;;4972175;28;20484;-83
2022/04/14 04:52:55;;;;;;;30.50;25.60;;;15.50;99.90;;;;;;4966910;28;20820;-84
2022/04/14 04:55:50;;;;;;;36.83;27.30;;;15.50;99.90;;;;;;4969883;28;20547;-84
2022/04/14 04:58:34;;;;;;;;;;;;;;;;;;;;;
2022/04/14 05:01:20;;;;;;;29.27;25.20;;;15.50;99.90;;;;;;4983016;28;20445;-85
2022/04/14 05:03:52;;;;;;;33.23;27.17;;;15.60;99.90;;;;;;4972570;28;20443;-84
2022/04/14 05:07:06;;;;;;;32.80;25.67;;;15.50;99.90;;;;;;4973673;28;20499;-83
2022/04/14 05:09:58;;;;;;;33.80;27.23;;;15.60;99.90;;;;;;4969433;28;20484;-84
2022/04/14 05:12:29;;;;;;;34.77;26.20;;;15.60;99.90;;;;;;4970739;28;21160;-85
2022/04/14 05:14:57;;;;;;;37.57;29.23;;;15.60;99.90;;;;;;4970037;28;20533;-86
2022/04/14 05:17:42;;;;;;;39.97;28.40;;;16.00;99.90;;;;;;4967893;28;20463;-85
2022/04/14 05:20:19;;;;;;;37.50;26.90;;;16.00;99.90;;;;;;4971109;28;20512;-87
2022/04/14 05:22:54;;;;;;;31.83;26.30;;;15.80;99.90;;;;;;4985573;28;20495;-89
2022/04/14 05:25:42;;;;;;;32.80;25.93;;;15.70;99.90;;;;;;4989783;28;20481;-88
2022/04/14 05:29:09;;;;;;;34.57;26.07;;;15.60;99.90;;;;;;4991489;28;20518;-83
2022/04/14 05:31:50;;;;;;;33.40;26.20;;;15.60;99.90;;;;;;4940645;28;20442;-87
2022/04/14 05:34:49;;;;;;;33.37;27.37;;;15.50;99.90;;;;;;4956286;28;20425;-87
2022/04/14 05:37:32;;;;;;;32.47;26.47;;;15.80;99.90;;;;;;4937884;29;20536;-85
2022/04/14 05:40:35;;;;;;;34.30;25.57;;;15.70;99.90;;;;;;4951720;28;20913;-84
2022/04/14 05:43:03;;;;;;;32.37;27.03;;;15.70;99.90;;;;;;4982184;28;20832;-82
2022/04/14 05:45:36;;;;;;;37.00;26.27;;;15.50;99.90;;;;;;4976783;28;20488;-86
2022/04/14 05:50:49;;;;;;;30.97;23.33;;;15.50;99.90;;;;;;5010795;28;20906;-86
2022/04/14 05:53:27;;;;;;;31.43;24.93;;;15.50;99.90;;;;;;5013491;28;21103;-86
2022/04/14 05:55:58;;;;;;;32.23;26.97;;;15.50;99.90;;;;;;5013621;28;20454;-87
2022/04/14 05:58:33;;;;;;;33.70;26.57;;;15.90;99.90;;;;;;5008502;28;20506;-83
2022/04/14 06:01:27;;;;;;;34.00;25.53;;;15.70;99.90;;;;;;5008521;28;20469;-86
2022/04/14 06:04:06;;;;;;;35.33;28.87;;;15.70;99.90;;;;;;5009556;28;20470;-86
2022/04/14 06:06:42;;;;;;;30.00;25.13;;;15.70;99.90;;;;;;5025093;28;21217;-88
2022/04/14 06:09:35;;;;;;;32.30;26.13;;;15.70;99.90;;;;;;5010908;28;20501;-84
2022/04/14 06:12:15;;;;;;;39.23;27.50;;;15.70;99.90;;;;;;5035454;28;20442;-85
2022/04/14 06:14:49;;;;;;;36.00;28.20;;;15.80;99.90;;;;;;5022878;28;20462;-87
2022/04/14 06:17:22;;;;;;;39.37;27.70;;;15.80;99.90;;;;;;5008101;28;20512;-86
2022/04/14 06:20:06;;;;;;;36.83;27.13;;;15.80;99.90;;;;;;5008368;28;20468;-88
2022/04/14 06:22:52;;;;;;;36.27;28.13;;;15.70;99.90;;;;;;5023227;28;20482;-85
2022/04/14 06:25:36;;;;;;;36.50;28.53;;;15.70;99.90;;;;;;5009153;28;20513;-90
2022/04/14 06:28:11;;;;;;;35.70;28.50;;;15.70;99.90;;;;;;5010665;28;20484;-86
2022/04/14 06:30:38;;;;;;;36.23;26.80;;;15.70;99.90;;;;;;5007985;28;20465;-88
2022/04/14 06:33:08;;;;;;;35.33;26.27;;;15.70;99.90;;;;;;5010946;28;21797;-88
2022/04/14 06:35:36;;;;;;;39.67;27.37;;;15.60;99.90;;;;;;5007262;28;20454;-86
2022/04/14 06:38:07;;;;;;;33.63;26.40;;;15.70;99.90;;;;;;5013750;28;20477;-88
2022/04/14 06:40:40;;;;;;;38.20;27.40;;;15.60;99.90;;;;;;5008792;28;20466;-87
2022/04/14 06:43:16;;;;;;;37.47;27.53;;;15.60;99.90;;;;;;5018431;28;20487;-85
2022/04/14 06:45:51;;;;;;;37.30;28.03;;;15.60;99.90;;;;;;5038883;28;20482;-84
2022/04/14 06:48:21;;;;;;;37.50;27.77;;;15.60;99.90;;;;;;5022207;28;20509;-87
2022/04/14 06:50:54;;;;;;;40.10;28.87;;;15.60;99.90;;;;;;5021103;28;20482;-85
2022/04/14 06:53:29;;;;;;;37.57;27.63;;;15.60;99.90;;;;;;5010078;28;20458;-86
2022/04/14 06:56:02;;;;;;;44.50;30.00;;;15.50;99.90;;;;;;5010183;28;20957;-85
2022/04/14 06:58:42;;;;;;;36.50;27.40;;;15.60;99.90;;;;;;5041092;28;20485;-89
2022/04/14 07:01:33;;;;;;;35.00;27.07;;;15.60;99.90;;;;;;5031150;28;20458;-88
2022/04/14 07:04:15;;;;;;;38.63;27.47;;;15.70;99.90;;;;;;5014031;28;20537;-86
2022/04/14 07:07:06;;;;;;;35.27;26.63;;;15.80;99.90;;;;;;5013422;28;20600;-87
2022/04/14 07:09:52;;;;;;;34.13;26.77;;;15.80;99.90;;;;;;5028061;28;20486;-86
2022/04/14 07:12:47;;;;;;;;;;;;;;;;;;;;;
2022/04/14 07:15:19;;;;;;;43.23;26.87;;;15.90;99.90;;;;;;5017592;28;21103;-86
2022/04/14 07:18:01;;;;;;;34.30;26.60;;;15.90;99.90;;;;;;5017377;28;20458;-87
2022/04/14 07:20:48;;;;;;;35.87;27.10;;;16.00;99.90;;;;;;5037992;28;20450;-86
2022/04/14 07:23:28;;;;;;;36.17;26.40;;;16.00;99.90;;;;;;5053714;28;20550;-87
2022/04/14 07:26:36;;;;;;;38.67;25.60;;;16.10;99.90;;;;;;5018275;28;21393;-85
2022/04/14 07:29:32;;;;;;;;;;;;;;;;;;;;;
2022/04/14 07:32:04;;;;;;;37.73;26.83;;;16.10;99.90;;;;;;5021753;28;20458;-88
2022/04/14 07:34:31;;;;;;;35.10;28.00;;;16.30;99.90;;;;;;5027083;28;20463;-88
2022/04/14 07:37:38;;;;;;;31.83;24.07;;;16.80;99.90;;;;;;5027643;28;20456;-86
2022/04/14 07:42:46;;;;;;;27.73;23.37;;;17.20;99.90;;;;;;3190655;26;20490;-87
2022/04/14 07:45:50;;;;;;;29.27;23.13;;;17.40;99.90;;;;;;4988011;28;20447;-86
2022/04/14 07:49:00;;;;;;;33.30;25.20;;;18.00;99.90;;;;;;4981214;28;20468;-88
2022/04/14 07:51:28;;;;;;;34.20;25.70;;;18.70;98.90;;;;;;4971544;28;20473;-88
2022/04/14 07:54:25;;;;;;;32.80;24.23;;;19.10;98.20;;;;;;4984517;28;20472;-88
2022/04/14 07:57:17;;;;;;;29.87;24.67;;;19.30;97.00;;;;;;4984580;28;20440;-89
2022/04/14 07:59:52;;;;;;;30.67;26.20;;;19.30;96.40;;;;;;4979908;28;20492;-87
2022/04/14 08:02:59;;;;;;;34.13;24.40;;;20.00;95.40;;;;;;4972310;28;20450;-86
2022/04/14 08:05:46;;;;;;;29.60;25.00;;;20.10;94.10;;;;;;4961617;28;20483;-85
2022/04/14 08:11:35;;;;;;;31.90;26.70;;;20.10;93.90;;;;;;4971659;28;20543;-88
2022/04/14 08:14:17;;;;;;;31.17;26.30;;;20.70;93.80;;;;;;4971629;28;20507;-86
2022/04/14 08:17:05;;;;;;;32.40;27.20;;;21.00;92.70;;;;;;4971295;28;20474;-86
2022/04/14 08:19:58;;;;;;;26.50;23.67;;;21.00;92.60;;;;;;4975567;28;20460;-84
2022/04/14 08:23:05;;;;;;;21.80;19.50;;;21.00;92.20;;;;;;4970710;28;20471;-84
2022/04/14 08:25:53;;;;;;;26.93;21.87;;;20.90;92.10;;;;;;4968215;28;20547;-88
2022/04/14 08:29:35;;;;;;;;;;;;;;;;;;;;;
2022/04/14 08:32:49;;;;;;;27.17;24.33;;;20.70;91.10;;;;;;4923881;29;20531;-83
2022/04/14 08:38:50;;;;;;;23.97;21.47;;;22.40;87.70;;;;;;4973937;28;20828;-86
2022/04/14 08:45:26;;;;;;;32.27;25.70;;;21.70;86.30;;;;;;4958347;28;20634;-85
2022/04/14 08:48:20;;;;;;;28.73;23.90;;;22.30;86.10;;;;;;4984912;28;20436;-86
2022/04/14 08:51:22;;;;;;;29.33;24.80;;;23.00;82.40;;;;;;4970576;28;20462;-84
2022/04/14 09:00:57;;;;;;;28.07;25.07;;;24.70;76.60;;;;;;4933427;26;20518;-86
2022/04/14 09:03:46;;;;;;;27.97;25.10;;;24.60;75.70;;;;;;4971492;28;20883;-83
2022/04/14 09:06:14;;;;;;;27.87;24.63;;;25.30;73.30;;;;;;4992311;28;20484;-86
2022/04/14 09:08:44;;;;;;;29.07;25.67;;;25.20;71.90;;;;;;4978401;28;20479;-89
2022/04/14 09:11:29;;;;;;;28.40;25.50;;;25.80;70.60;;;;;;4988331;28;20491;-88
2022/04/14 09:14:15;;;;;;;28.50;25.40;;;26.10;67.20;;;;;;4983325;28;20468;-86
2022/04/14 09:16:54;;;;;;;27.97;25.23;;;26.40;63.90;;;;;;4988058;28;20453;-87
2022/04/14 09:19:56;;;;;;;28.10;25.30;;;25.10;66.70;;;;;;5013010;28;20495;-87
2022/04/14 09:22:25;;;;;;;26.00;23.40;;;23.70;70.20;;;;;;5008286;28;20448;-86
2022/04/14 09:25:24;;;;;;;28.23;25.07;;;23.40;71.70;;;;;;4973835;28;20444;-85
2022/04/14 09:28:12;;;;;;;25.53;21.83;;;23.90;71.00;;;;;;4964973;28;20468;-85
2022/04/14 09:31:41;;;;;;;31.17;25.40;;;24.60;67.90;;;;;;4964551;28;20440;-86
2022/04/14 09:35:02;;;;;;;26.43;23.60;;;24.30;68.00;;;;;;4956127;28;20474;-84
2022/04/14 09:37:39;;;;;;;24.23;21.67;;;25.50;66.70;;;;;;4999784;28;20467;-84
2022/04/14 09:40:52;;;;;;;24.97;20.50;;;27.70;58.70;;;;;;4969883;28;20474;-86
2022/04/14 09:43:33;;;;;;;25.07;21.23;;;28.20;55.00;;;;;;4947567;28;20448;-84
2022/04/14 09:46:26;;;;;;;23.73;20.33;;;26.40;57.60;;;;;;4956576;28;20468;-85
2022/04/14 09:49:49;;;;;;;22.23;19.93;;;24.90;60.10;;;;;;4962452;28;20472;-86
2022/04/14 09:52:25;;;;;;;19.60;17.60;;;23.30;65.30;;;;;;4963075;28;21059;-83
2022/04/14 09:55:12;;;;;;;20.17;17.83;;;21.80;70.20;;;;;;4965905;28;20532;-87
2022/04/14 09:58:27;;;;;;;20.63;18.63;;;22.30;71.10;;;;;;4967281;28;20554;-87
2022/04/14 10:01:01;;;;;;;19.40;17.50;;;23.00;68.80;;;;;;4969152;28;20431;-86
2022/04/14 10:03:30;;;;;;;21.20;19.20;;;23.60;67.20;;;;;;4974939;28;22051;-86
2022/04/14 10:06:07;;;;;;;20.20;17.63;;;26.00;60.90;;;;;;4973524;28;20444;-84
2022/04/14 10:08:48;;;;;;;15.13;13.53;;;26.90;56.90;;;;;;4972703;28;20923;-88
2022/04/14 10:11:30;;;;;;;19.50;17.60;;;25.30;57.80;;;;;;4969465;28;20516;-84
2022/04/14 10:14:12;;;;;;;19.13;17.30;;;24.60;59.40;;;;;;4970071;28;20488;-87
2022/04/14 10:16:41;;;;;;;18.77;16.83;;;24.80;60.50;;;;;;4975761;28;20471;-89
2022/04/14 10:19:30;;;;;;;19.37;17.30;;;25.50;59.50;;;;;;4965878;28;21831;-86
2022/04/14 10:22:07;;;;;;;20.60;17.17;;;25.70;58.30;;;;;;4963858;28;20454;-86
2022/04/14 10:24:51;;;;;;;17.80;16.10;;;25.80;58.40;;;;;;4968018;28;20466;-84
2022/04/14 10:27:25;;;;;;;16.17;14.50;;;26.10;56.60;;;;;;4964171;28;20550;-85
2022/04/14 10:29:58;;;;;;;17.33;15.73;;;25.10;58.20;;;;;;4968187;28;20476;-85
2022/04/14 10:32:34;;;;;;;14.97;13.03;;;24.70;59.70;;;;;;4971877;28;20473;-86
2022/04/14 10:35:13;;;;;;;14.90;13.33;;;25.50;58.60;;;;;;4971559;28;20471;-86
2022/04/14 10:38:25;;;;;;;12.63;11.43;;;26.60;55.70;;;;;;4970462;28;20904;-86
2022/04/14 10:41:07;;;;;;;10.90;9.80;;;25.70;55.00;;;;;;4965807;28;20464;-85
2022/04/14 10:43:48;;;;;;;12.43;11.23;;;26.90;53.20;;;;;;4970364;28;20461;-85
2022/04/14 10:46:16;;;;;;;6.00;5.40;;;27.40;52.60;;;;;;4970511;28;20527;-85
2022/04/14 10:49:40;;;;;;;7.43;6.80;;;26.90;49.40;;;;;;4983545;28;21003;-89
2022/04/14 10:52:32;;;;;;;10.17;9.37;;;25.70;50.60;;;;;;4973005;28;20471;-86
2022/04/14 10:55:01;;;;;;;10.80;9.80;;;25.50;53.20;;;;;;4972380;28;20495;-86
2022/04/14 10:57:44;;;;;;;12.47;11.23;;;25.50;53.70;;;;;;4969652;28;20496;-85
2022/04/14 11:00:20;;;;;;;11.57;10.57;;;25.50;53.50;;;;;;4969417;28;20478;-87
2022/04/14 11:03:13;;;;;;;11.60;10.57;;;25.30;53.40;;;;;;4971449;28;20475;-87
2022/04/14 11:05:54;;;;;;;12.03;11.00;;;25.50;53.80;;;;;;4975486;28;20520;-87
2022/04/14 11:08:32;;;;;;;12.73;10.43;;;25.20;52.60;;;;;;4970884;28;20486;-85
2022/04/14 11:11:17;;;;;;;15.00;13.73;;;24.90;53.20;;;;;;4969853;28;20468;-85
2022/04/14 11:14:07;;;;;;;13.00;11.87;;;24.60;54.00;;;;;;4968318;28;20460;-84
2022/04/14 11:16:48;;;;;;;12.47;11.47;;;24.30;54.70;;;;;;4968149;28;21050;-86
2022/04/14 11:19:41;;;;;;;11.60;10.60;;;23.90;54.70;;;;;;4969634;28;20487;-85
2022/04/14 11:22:08;;;;;;;11.70;10.80;;;23.90;55.10;;;;;;4970372;28;20463;-87
2022/04/14 11:24:36;;;;;;;11.00;10.10;;;24.10;54.00;;;;;;4972749;28;20472;-84
2022/04/14 11:27:21;;;;;;;11.70;10.70;;;24.30;54.20;;;;;;4968461;28;20495;-88
2022/04/14 11:30:00;;;;;;;22.63;12.03;;;26.40;51.70;;;;;;4997002;23;20504;-85
2022/04/14 11:32:43;;;;;;;13.67;12.57;;;26.30;51.50;;;;;;4974657;28;20445;-86
2022/04/14 11:35:43;;;;;;;13.93;12.77;;;25.60;52.10;;;;;;4973818;28;20475;-88
2022/04/14 11:42:37;;;;;;;12.13;11.03;;;24.80;53.60;;;;;;4957757;28;20425;-86
2022/04/14 11:45:20;;;;;;;13.17;11.87;;;25.00;53.40;;;;;;4962957;28;20483;-84
2022/04/14 11:47:48;;;;;;;12.47;11.37;;;25.00;53.30;;;;;;4974429;28;20500;-85
2022/04/14 11:50:33;;;;;;;13.37;12.17;;;24.70;53.90;;;;;;4973145;28;20522;-86
2022/04/14 11:53:26;;;;;;;12.40;11.20;;;24.90;53.50;;;;;;4979740;28;20527;-86
2022/04/14 11:56:17;;;;;;;12.20;11.17;;;24.70;53.20;;;;;;4967519;28;20525;-86
2022/04/14 11:58:53;;;;;;;11.83;10.73;;;24.10;54.80;;;;;;4983765;28;20476;-87
2022/04/14 12:01:20;;;;;;;10.70;9.77;;;24.20;55.20;;;;;;4981936;28;20483;-86
2022/04/14 12:03:48;;;;;;;9.50;8.67;;;24.30;54.90;;;;;;4979894;28;20461;-86
2022/04/14 12:06:16;;;;;;;13.67;12.37;;;24.60;54.10;;;;;;4978956;28;20468;-88
2022/04/14 12:08:58;;;;;;;11.77;10.77;;;24.90;53.40;;;;;;4975820;28;20472;-87
2022/04/14 12:11:38;;;;;;;9.67;8.70;;;24.80;53.90;;;;;;4983172;28;20484;-86
2022/04/14 12:14:10;;;;;;;9.40;7.60;;;25.00;53.30;;;;;;4982602;28;20456;-88
2022/04/14 12:17:10;;;;;;;10.17;9.27;;;25.20;52.50;;;;;;4986262;28;20476;-89
2022/04/14 12:19:55;;;;;;;8.33;7.53;;;25.30;52.50;;;;;;4984178;28;20471;-89
2022/04/14 12:22:31;;;;;;;7.77;7.07;;;25.70;52.40;;;;;;4989748;28;20472;-88
2022/04/14 12:25:18;;;;;;;9.00;8.10;;;25.80;51.10;;;;;;4988724;28;20470;-89
2022/04/14 12:28:15;;;;;;;8.70;7.60;;;25.70;50.30;;;;;;4988018;28;20481;-87
2022/04/14 12:31:23;;;;;;;9.27;8.47;;;25.50;51.00;;;;;;4989720;28;20453;-88
2022/04/14 12:37:12;;;;;;;11.43;8.73;;;25.70;51.70;;;;;;5271735;23;20462;-89
2022/04/14 12:40:10;;;;;;;8.17;7.37;;;26.00;51.20;;;;;;5008373;28;20522;-88
2022/04/14 12:43:22;;;;;;;9.20;8.30;;;25.70;50.50;;;;;;5022660;28;20452;-89
2022/04/14 12:46:15;;;;;;;10.13;9.33;;;25.30;50.90;;;;;;5009284;28;20463;-88
2022/04/14 12:49:19;;;;;;;8.90;8.00;;;25.00;51.50;;;;;;5008814;28;20530;-87
2022/04/14 12:52:07;;;;;;;7.93;7.23;;;25.40;51.50;;;;;;5020595;28;20450;-88
2022/04/14 12:55:46;;;;;;;8.90;8.10;;;25.60;50.50;;;;;;5021473;28;20419;-86
2022/04/14 12:59:03;;;;;;;9.80;8.77;;;25.60;50.40;;;;;;4991152;28;20459;-89
2022/04/14 13:05:10;;;;;;;8.07;7.37;;;24.80;51.30;;;;;;5002630;28;20467;-88
2022/04/14 13:08:22;;;;;;;9.30;8.37;;;24.60;52.10;;;;;;4937544;29;20529;-85
2022/04/14 13:10:59;;;;;;;11.03;9.80;;;24.20;53.00;;;;;;4954799;28;20462;-85
2022/04/14 13:13:42;;;;;;;11.30;10.20;;;24.10;53.60;;;;;;4940502;29;20541;-86
2022/04/14 13:16:33;;;;;;;11.90;10.70;;;24.00;54.40;;;;;;4941349;29;20449;-87
2022/04/14 13:19:29;;;;;;;11.27;9.57;;;24.00;54.90;;;;;;4943526;28;21146;-85
2022/04/14 13:22:20;;;;;;;11.17;10.10;;;24.20;54.70;;;;;;4953786;28;20445;-87
2022/04/14 13:25:15;;;;;;;;;;;;;;;;;;;;;
2022/04/14 13:27:54;;;;;;;10.00;9.00;;;24.20;53.50;;;;;;4955594;28;20474;-87
2022/04/14 13:30:55;;;;;;;8.83;8.03;;;24.20;53.20;;;;;;4956156;28;20501;-88
2022/04/14 13:33:42;;;;;;;10.03;8.60;;;24.10;53.30;;;;;;4956967;28;20458;-90
2022/04/14 13:36:45;;;;;;;9.40;8.20;;;24.00;53.20;;;;;;4988581;28;20523;-84
2022/04/14 13:40:02;;;;;;;12.50;11.40;;;24.00;53.70;;;;;;5030657;23;21350;-83
2022/04/14 13:45:57;;;;;;;8.60;7.80;;;24.00;53.80;;;;;;5006760;28;20485;-89
2022/04/14 13:48:45;;;;;;;10.30;8.13;;;24.00;53.30;;;;;;4997539;28;20524;-91
2022/04/14 13:54:54;;;;;;;8.80;7.43;;;23.50;53.70;;;;;;4979934;28;20534;-89
2022/04/14 13:58:09;;;;;;;9.03;8.20;;;23.50;53.70;;;;;;4983678;28;20444;-90
2022/04/14 14:01:04;;;;;;;;;;;;;;;;;;;;;
2022/04/14 14:03:46;;;;;;;9.63;8.63;;;23.10;55.20;;;;;;4974449;28;20536;-83
2022/04/14 14:06:29;;;;;;;11.10;10.00;;;23.30;55.40;;;;;;4975231;28;20460;-82
2022/04/14 15:38:21;;;;;;;12.37;11.27;;;22.50;59.10;;;;;;1236771;23;20517;-85
2022/04/14 15:44:45;;;;;;;13.00;11.80;;;22.50;59.60;;;;;;4989758;28;20528;-85
2022/04/14 15:47:59;;;;;;;11.77;10.67;;;22.60;59.40;;;;;;4989427;28;20529;-87
2022/04/14 15:51:15;;;;;;;;;;;;;;;;;;;;;
2022/04/14 15:54:23;;;;;;;12.80;11.70;;;22.60;59.20;;;;;;4911888;29;20498;-85
2022/04/14 15:57:31;;;;;;;12.20;11.30;;;22.70;59.00;;;;;;4894100;29;20471;-87
2022/04/14 16:00:26;;;;;;;12.27;11.17;;;22.90;58.80;;;;;;4871501;29;20532;-88
2022/04/14 16:03:13;;;;;;;10.50;9.70;;;22.80;58.60;;;;;;4837880;29;20577;-81
2022/04/14 16:05:59;;;;;;;;;;;;;;;;;;;;;
2022/04/14 16:09:13;;;;;;;11.60;10.60;;;22.80;58.10;;;;;;4891533;29;20487;-81
2022/04/14 16:12:18;;;;;;;11.80;10.83;;;23.30;57.10;;;;;;4874542;29;20570;-82
2022/04/14 16:14:52;;;;;;;11.93;10.93;;;23.10;57.60;;;;;;4890508;29;20529;-82
2022/04/14 16:17:52;;;;;;;;;;;;;;;;;;;;;
2022/04/14 16:20:55;;;;;;;11.80;10.90;;;22.80;58.10;;;;;;3302507;26;20468;-89
2022/04/14 16:23:36;;;;;;;12.07;10.97;;;22.60;58.30;;;;;;4969047;28;20528;-88